sensor_id;sensor_type;location;lat;lon;timestamp;pressure;altitude;pressure_sealevel;temperature;humidity
64086;BME280;50333;47.436;21.390;2022-09-24T00:01:46;100865.28;;;11.09;66.20
64086;BME280;50333;47.436;21.390;2022-09-24T00:04:14;100867.44;;;10.80;66.79
64086;BME280;50333;47.436;21.390;2022-09-24T00:06:44;100872.09;;;11.16;65.71
64086;BME280;50333;47.436;21.390;2022-09-24T00:09:15;100872.81;;;10.68;67.41
64086;BME280;50333;47.436;21.390;2022-09-24T00:11:43;100869.69;;;11.09;66.44
64086;BME280;50333;47.436;21.390;2022-09-24T00:14:12;100863.63;;;10.66;66.96
64086;BME280;50333;47.436;21.390;2022-09-24T00:16:40;100862.22;;;10.80;67.12
64086;BME280;50333;47.436;21.390;2022-09-24T00:19:11;100868.00;;;10.87;67.38
64086;BME280;50333;47.436;21.390;2022-09-24T00:21:40;100869.88;;;10.92;66.82
64086;BME280;50333;47.436;21.390;2022-09-24T00:24:12;100867.78;;;10.94;66.30
64086;BME280;50333;47.436;21.390;2022-09-24T00:27:01;100869.03;;;10.86;66.45
64086;BME280;50333;47.436;21.390;2022-09-24T00:29:29;100873.19;;;10.55;67.67
64086;BME280;50333;47.436;21.390;2022-09-24T00:32:03;100873.72;;;10.52;66.82
64086;BME280;50333;47.436;21.390;2022-09-24T00:34:31;100874.94;;;10.44;66.96
64086;BME280;50333;47.436;21.390;2022-09-24T00:36:59;100866.34;;;10.76;65.77
64086;BME280;50333;47.436;21.390;2022-09-24T00:39:27;100867.13;;;10.77;65.27
64086;BME280;50333;47.436;21.390;2022-09-24T00:41:55;100870.72;;;10.16;68.44
64086;BME280;50333;47.436;21.390;2022-09-24T00:47:34;100877.84;;;10.26;68.84
64086;BME280;50333;47.436;21.390;2022-09-24T00:50:24;100871.25;;;10.40;68.28
64086;BME280;50333;47.436;21.390;2022-09-24T00:53:15;100872.44;;;10.54;66.79
64086;BME280;50333;47.436;21.390;2022-09-24T00:55:48;100867.66;;;10.46;67.57
64086;BME280;50333;47.436;21.390;2022-09-24T00:58:21;100867.50;;;10.58;67.58
64086;BME280;50333;47.436;21.390;2022-09-24T01:00:53;100869.50;;;10.24;68.02
64086;BME280;50333;47.436;21.390;2022-09-24T01:03:25;100869.28;;;10.52;67.31
64086;BME280;50333;47.436;21.390;2022-09-24T01:05:55;100870.34;;;10.56;66.79
64086;BME280;50333;47.436;21.390;2022-09-24T01:08:22;100856.66;;;10.71;66.45
64086;BME280;50333;47.436;21.390;2022-09-24T01:11:01;100855.03;;;10.33;67.45
64086;BME280;50333;47.436;21.390;2022-09-24T01:21:43;100856.41;;;10.73;66.34
64086;BME280;50333;47.436;21.390;2022-09-24T01:24:26;100848.91;;;10.49;66.96
64086;BME280;50333;47.436;21.390;2022-09-24T01:32:34;100845.91;;;10.63;66.97
64086;BME280;50333;47.436;21.390;2022-09-24T01:35:18;100842.94;;;9.99;68.65
64086;BME280;50333;47.436;21.390;2022-09-24T01:37:53;100848.75;;;10.07;68.60
64086;BME280;50333;47.436;21.390;2022-09-24T01:40:24;100838.22;;;10.24;67.27
64086;BME280;50333;47.436;21.390;2022-09-24T01:42:56;100846.22;;;10.39;66.90
64086;BME280;50333;47.436;21.390;2022-09-24T01:45:26;100848.94;;;10.27;67.58
64086;BME280;50333;47.436;21.390;2022-09-24T01:47:59;100840.81;;;10.83;65.68
64086;BME280;50333;47.436;21.390;2022-09-24T01:50:30;100851.38;;;10.12;68.25
64086;BME280;50333;47.436;21.390;2022-09-24T01:53:29;100843.13;;;10.42;67.42
64086;BME280;50333;47.436;21.390;2022-09-24T01:56:03;100844.66;;;11.08;64.67
64086;BME280;50333;47.436;21.390;2022-09-24T01:58:45;100849.59;;;10.12;68.85
64086;BME280;50333;47.436;21.390;2022-09-24T02:01:16;100844.44;;;10.17;67.75
64086;BME280;50333;47.436;21.390;2022-09-24T02:03:50;100839.50;;;10.48;67.33
64086;BME280;50333;47.436;21.390;2022-09-24T02:06:24;100853.06;;;9.96;69.37
64086;BME280;50333;47.436;21.390;2022-09-24T02:08:56;100850.19;;;10.19;68.72
64086;BME280;50333;47.436;21.390;2022-09-24T02:11:25;100852.06;;;10.51;67.41
64086;BME280;50333;47.436;21.390;2022-09-24T02:16:30;100841.59;;;10.46;67.08
64086;BME280;50333;47.436;21.390;2022-09-24T02:19:04;100847.06;;;10.77;66.40
64086;BME280;50333;47.436;21.390;2022-09-24T02:21:33;100833.19;;;10.71;66.28
64086;BME280;50333;47.436;21.390;2022-09-24T02:27:11;100838.84;;;10.96;65.86
64086;BME280;50333;47.436;21.390;2022-09-24T02:29:39;100845.03;;;10.25;68.24
64086;BME280;50333;47.436;21.390;2022-09-24T02:32:09;100844.06;;;10.63;67.04
64086;BME280;50333;47.436;21.390;2022-09-24T02:34:44;100847.97;;;10.61;66.32
64086;BME280;50333;47.436;21.390;2022-09-24T02:37:15;100843.66;;;10.77;65.75
64086;BME280;50333;47.436;21.390;2022-09-24T02:39:43;100841.88;;;10.82;66.09
64086;BME280;50333;47.436;21.390;2022-09-24T02:42:12;100843.47;;;10.51;67.41
64086;BME280;50333;47.436;21.390;2022-09-24T02:44:40;100836.63;;;10.77;66.30
64086;BME280;50333;47.436;21.390;2022-09-24T02:47:09;100837.03;;;10.64;66.22
64086;BME280;50333;47.436;21.390;2022-09-24T02:49:37;100825.94;;;10.46;67.27
64086;BME280;50333;47.436;21.390;2022-09-24T02:52:04;100834.56;;;10.47;67.37
64086;BME280;50333;47.436;21.390;2022-09-24T02:54:32;100832.34;;;10.61;66.52
64086;BME280;50333;47.436;21.390;2022-09-24T02:57:00;100837.03;;;10.64;66.86
64086;BME280;50333;47.436;21.390;2022-09-24T02:59:28;100836.50;;;10.62;66.78
64086;BME280;50333;47.436;21.390;2022-09-24T03:01:56;100833.75;;;10.46;67.23
64086;BME280;50333;47.436;21.390;2022-09-24T03:04:24;100833.87;;;10.29;67.28
64086;BME280;50333;47.436;21.390;2022-09-24T03:06:52;100831.31;;;10.67;66.67
64086;BME280;50333;47.436;21.390;2022-09-24T03:09:20;100833.91;;;10.62;66.73
64086;BME280;50333;47.436;21.390;2022-09-24T03:11:48;100830.09;;;10.42;67.50
64086;BME280;50333;47.436;21.390;2022-09-24T03:14:16;100835.91;;;10.00;68.54
64086;BME280;50333;47.436;21.390;2022-09-24T03:16:44;100827.03;;;10.50;66.51
64086;BME280;50333;47.436;21.390;2022-09-24T03:19:12;100826.16;;;10.40;66.83
64086;BME280;50333;47.436;21.390;2022-09-24T03:21:39;100831.09;;;10.14;67.10
64086;BME280;50333;47.436;21.390;2022-09-24T03:24:07;100829.69;;;10.28;67.18
64086;BME280;50333;47.436;21.390;2022-09-24T03:26:34;100829.13;;;10.26;67.61
64086;BME280;50333;47.436;21.390;2022-09-24T03:29:02;100828.31;;;10.21;67.58
64086;BME280;50333;47.436;21.390;2022-09-24T03:31:30;100827.50;;;9.93;68.42
64086;BME280;50333;47.436;21.390;2022-09-24T03:33:58;100828.31;;;10.21;67.56
64086;BME280;50333;47.436;21.390;2022-09-24T03:36:26;100824.91;;;10.20;67.44
64086;BME280;50333;47.436;21.390;2022-09-24T03:38:55;100819.56;;;10.32;67.22
64086;BME280;50333;47.436;21.390;2022-09-24T03:41:25;100822.25;;;10.15;67.49
64086;BME280;50333;47.436;21.390;2022-09-24T03:43:54;100823.84;;;10.16;67.93
64086;BME280;50333;47.436;21.390;2022-09-24T03:46:22;100827.81;;;10.24;67.47
64086;BME280;50333;47.436;21.390;2022-09-24T03:48:57;100831.78;;;10.04;67.02
64086;BME280;50333;47.436;21.390;2022-09-24T03:51:26;100825.16;;;10.18;66.24
64086;BME280;50333;47.436;21.390;2022-09-24T03:53:54;100831.97;;;9.97;66.39
64086;BME280;50333;47.436;21.390;2022-09-24T03:56:21;100826.53;;;9.99;66.54
64086;BME280;50333;47.436;21.390;2022-09-24T03:58:49;100825.44;;;9.95;66.93
64086;BME280;50333;47.436;21.390;2022-09-24T04:01:16;100825.66;;;10.15;66.22
64086;BME280;50333;47.436;21.390;2022-09-24T04:03:48;100836.47;;;9.80;67.41
64086;BME280;50333;47.436;21.390;2022-09-24T04:06:16;100839.19;;;9.68;68.13
64086;BME280;50333;47.436;21.390;2022-09-24T04:08:50;100828.81;;;10.17;66.36
64086;BME280;50333;47.436;21.390;2022-09-24T04:11:17;100838.91;;;9.87;67.55
64086;BME280;50333;47.436;21.390;2022-09-24T04:13:45;100836.72;;;9.78;67.71
64086;BME280;50333;47.436;21.390;2022-09-24T04:16:13;100834.75;;;9.91;67.41
64086;BME280;50333;47.436;21.390;2022-09-24T04:18:40;100835.25;;;9.43;68.24
64086;BME280;50333;47.436;21.390;2022-09-24T04:21:08;100835.38;;;9.98;66.77
64086;BME280;50333;47.436;21.390;2022-09-24T04:23:36;100837.28;;;9.80;67.10
64086;BME280;50333;47.436;21.390;2022-09-24T04:26:03;100830.66;;;9.95;67.13
64086;BME280;50333;47.436;21.390;2022-09-24T04:28:31;100839.38;;;9.84;66.99
64086;BME280;50333;47.436;21.390;2022-09-24T04:30:59;100834.88;;;10.01;66.48
64086;BME280;50333;47.436;21.390;2022-09-24T04:33:27;100840.47;;;9.43;69.09
64086;BME280;50333;47.436;21.390;2022-09-24T04:35:54;100830.72;;;10.00;66.54
64086;BME280;50333;47.436;21.390;2022-09-24T04:38:22;100840.34;;;9.55;67.83
64086;BME280;50333;47.436;21.390;2022-09-24T04:40:49;100829.97;;;10.05;66.35
64086;BME280;50333;47.436;21.390;2022-09-24T04:43:17;100841.69;;;10.29;65.49
64086;BME280;50333;47.436;21.390;2022-09-24T04:45:45;100845.31;;;10.28;65.23
64086;BME280;50333;47.436;21.390;2022-09-24T04:48:13;100845.09;;;10.08;66.48
64086;BME280;50333;47.436;21.390;2022-09-24T04:50:41;100849.84;;;10.11;66.67
64086;BME280;50333;47.436;21.390;2022-09-24T04:53:13;100848.09;;;9.72;68.08
64086;BME280;50333;47.436;21.390;2022-09-24T04:55:40;100850.00;;;10.04;67.45
64086;BME280;50333;47.436;21.390;2022-09-24T04:58:08;100853.19;;;9.62;68.61
64086;BME280;50333;47.436;21.390;2022-09-24T05:00:36;100847.13;;;10.00;67.86
64086;BME280;50333;47.436;21.390;2022-09-24T05:03:04;100849.91;;;9.94;68.39
64086;BME280;50333;47.436;21.390;2022-09-24T05:05:40;100838.56;;;10.60;66.28
64086;BME280;50333;47.436;21.390;2022-09-24T05:08:09;100845.31;;;10.28;67.39
64086;BME280;50333;47.436;21.390;2022-09-24T05:10:36;100837.84;;;10.64;65.65
64086;BME280;50333;47.436;21.390;2022-09-24T05:13:04;100837.88;;;10.74;66.08
64086;BME280;50333;47.436;21.390;2022-09-24T05:15:32;100842.56;;;11.05;65.68
64086;BME280;50333;47.436;21.390;2022-09-24T05:18:00;100845.03;;;11.27;64.29
64086;BME280;50333;47.436;21.390;2022-09-24T05:20:27;100843.78;;;11.40;64.42
64086;BME280;50333;47.436;21.390;2022-09-24T05:22:55;100839.28;;;10.82;66.40
64086;BME280;50333;47.436;21.390;2022-09-24T05:25:22;100831.62;;;11.08;65.67
64086;BME280;50333;47.436;21.390;2022-09-24T05:27:53;100832.19;;;10.78;66.85
64086;BME280;50333;47.436;21.390;2022-09-24T05:30:23;100843.94;;;10.48;66.01
64086;BME280;50333;47.436;21.390;2022-09-24T05:32:51;100843.72;;;10.27;70.12
64086;BME280;50333;47.436;21.390;2022-09-24T05:35:21;100840.63;;;11.32;65.91
64086;BME280;50333;47.436;21.390;2022-09-24T05:37:50;100841.50;;;11.54;65.55
64086;BME280;50333;47.436;21.390;2022-09-24T05:40:20;100839.84;;;10.89;67.49
64086;BME280;50333;47.436;21.390;2022-09-24T05:43:07;100842.25;;;11.49;65.88
64086;BME280;50333;47.436;21.390;2022-09-24T05:45:35;100841.22;;;11.50;65.77
64086;BME280;50333;47.436;21.390;2022-09-24T05:48:02;100845.09;;;12.11;63.74
64086;BME280;50333;47.436;21.390;2022-09-24T05:50:30;100845.66;;;11.44;65.81
64086;BME280;50333;47.436;21.390;2022-09-24T05:53:02;100848.16;;;11.29;65.81
64086;BME280;50333;47.436;21.390;2022-09-24T05:55:30;100847.31;;;11.76;65.75
64086;BME280;50333;47.436;21.390;2022-09-24T05:58:06;100837.25;;;12.05;64.86
64086;BME280;50333;47.436;21.390;2022-09-24T06:00:35;100834.72;;;11.63;66.44
64086;BME280;50333;47.436;21.390;2022-09-24T06:03:12;100837.66;;;11.77;66.27
64086;BME280;50333;47.436;21.390;2022-09-24T06:05:47;100839.97;;;11.68;67.30
64086;BME280;50333;47.436;21.390;2022-09-24T06:08:16;100851.03;;;11.27;68.93
64086;BME280;50333;47.436;21.390;2022-09-24T06:10:45;100843.84;;;10.65;71.20
64086;BME280;50333;47.436;21.390;2022-09-24T06:13:17;100860.50;;;10.64;70.84
64086;BME280;50333;47.436;21.390;2022-09-24T06:15:45;100846.78;;;11.69;68.39
64086;BME280;50333;47.436;21.390;2022-09-24T06:18:13;100852.56;;;11.76;68.14
64086;BME280;50333;47.436;21.390;2022-09-24T06:20:41;100855.00;;;11.98;66.46
64086;BME280;50333;47.436;21.390;2022-09-24T06:23:09;100847.44;;;12.02;67.16
64086;BME280;50333;47.436;21.390;2022-09-24T06:25:37;100850.63;;;12.55;65.42
64086;BME280;50333;47.436;21.390;2022-09-24T06:28:04;100854.00;;;12.20;66.95
64086;BME280;50333;47.436;21.390;2022-09-24T06:30:34;100852.69;;;11.49;69.44
64086;BME280;50333;47.436;21.390;2022-09-24T06:33:10;100852.06;;;11.84;68.92
64086;BME280;50333;47.436;21.390;2022-09-24T06:35:40;100850.87;;;12.23;67.74
64086;BME280;50333;47.436;21.390;2022-09-24T06:38:16;100850.84;;;12.07;68.00
64086;BME280;50333;47.436;21.390;2022-09-24T06:40:46;100855.59;;;12.57;66.86
64086;BME280;50333;47.436;21.390;2022-09-24T06:43:15;100848.78;;;12.35;66.98
64086;BME280;50333;47.436;21.390;2022-09-24T06:45:44;100858.16;;;12.00;67.06
64086;BME280;50333;47.436;21.390;2022-09-24T06:48:13;100865.38;;;11.83;69.17
64086;BME280;50333;47.436;21.390;2022-09-24T06:50:42;100855.34;;;12.74;66.88
64086;BME280;50333;47.436;21.390;2022-09-24T06:53:11;100857.69;;;12.75;66.66
64086;BME280;50333;47.436;21.390;2022-09-24T06:55:39;100856.09;;;12.95;66.31
64086;BME280;50333;47.436;21.390;2022-09-24T06:58:11;100860.53;;;13.05;66.17
64086;BME280;50333;47.436;21.390;2022-09-24T07:00:40;100853.19;;;13.22;65.66
64086;BME280;50333;47.436;21.390;2022-09-24T07:03:14;100857.75;;;13.66;63.88
64086;BME280;50333;47.436;21.390;2022-09-24T07:05:43;100854.03;;;12.40;67.23
64086;BME280;50333;47.436;21.390;2022-09-24T07:08:11;100858.66;;;13.31;65.25
64086;BME280;50333;47.436;21.390;2022-09-24T07:10:45;100869.25;;;13.70;64.47
64086;BME280;50333;47.436;21.390;2022-09-24T07:13:16;100874.91;;;13.33;65.62
64086;BME280;50333;47.436;21.390;2022-09-24T07:15:44;100866.22;;;13.43;65.10
64086;BME280;50333;47.436;21.390;2022-09-24T07:18:12;100870.38;;;13.54;64.14
64086;BME280;50333;47.436;21.390;2022-09-24T07:20:40;100876.12;;;13.56;63.01
64086;BME280;50333;47.436;21.390;2022-09-24T07:23:09;100873.75;;;13.60;64.27
64086;BME280;50333;47.436;21.390;2022-09-24T07:25:38;100875.31;;;14.15;62.93
64086;BME280;50333;47.436;21.390;2022-09-24T07:28:09;100879.72;;;14.25;62.19
64086;BME280;50333;47.436;21.390;2022-09-24T07:30:37;100871.25;;;14.39;61.34
64086;BME280;50333;47.436;21.390;2022-09-24T07:33:05;100886.50;;;14.31;61.86
64086;BME280;50333;47.436;21.390;2022-09-24T07:35:37;100877.44;;;14.58;61.91
64086;BME280;50333;47.436;21.390;2022-09-24T07:38:09;100891.91;;;14.06;62.50
64086;BME280;50333;47.436;21.390;2022-09-24T07:40:39;100877.44;;;14.53;61.16
64086;BME280;50333;47.436;21.390;2022-09-24T07:43:06;100890.84;;;14.07;61.99
64086;BME280;50333;47.436;21.390;2022-09-24T07:45:39;100874.37;;;14.01;62.88
64086;BME280;50333;47.436;21.390;2022-09-24T07:48:08;100877.03;;;14.36;62.74
64086;BME280;50333;47.436;21.390;2022-09-24T07:50:40;100870.78;;;15.00;60.20
64086;BME280;50333;47.436;21.390;2022-09-24T07:53:12;100878.81;;;14.80;60.80
64086;BME280;50333;47.436;21.390;2022-09-24T07:55:40;100869.72;;;15.01;60.41
64086;BME280;50333;47.436;21.390;2022-09-24T07:58:10;100869.19;;;14.99;59.07
64086;BME280;50333;47.436;21.390;2022-09-24T08:00:39;100882.62;;;14.24;60.66
64086;BME280;50333;47.436;21.390;2022-09-24T08:03:07;100882.69;;;14.53;61.38
64086;BME280;50333;47.436;21.390;2022-09-24T08:05:34;100886.59;;;14.21;61.27
64086;BME280;50333;47.436;21.390;2022-09-24T08:08:02;100873.31;;;15.35;59.42
64086;BME280;50333;47.436;21.390;2022-09-24T08:10:30;100877.59;;;15.50;58.57
64086;BME280;50333;47.436;21.390;2022-09-24T08:13:00;100879.88;;;15.56;58.70
64086;BME280;50333;47.436;21.390;2022-09-24T08:15:28;100878.56;;;15.35;59.15
64086;BME280;50333;47.436;21.390;2022-09-24T08:18:03;100879.97;;;16.13;57.19
64086;BME280;50333;47.436;21.390;2022-09-24T08:20:31;100879.19;;;16.13;57.36
64086;BME280;50333;47.436;21.390;2022-09-24T08:23:01;100885.97;;;15.76;56.68
64086;BME280;50333;47.436;21.390;2022-09-24T08:25:28;100889.41;;;16.14;57.52
64086;BME280;50333;47.436;21.390;2022-09-24T08:28:04;100888.84;;;15.55;58.05
64086;BME280;50333;47.436;21.390;2022-09-24T08:30:34;100891.72;;;15.05;59.11
64086;BME280;50333;47.436;21.390;2022-09-24T08:33:01;100891.78;;;15.00;59.04
64086;BME280;50333;47.436;21.390;2022-09-24T08:35:33;100900.09;;;15.61;57.29
64086;BME280;50333;47.436;21.390;2022-09-24T08:38:01;100902.13;;;15.16;58.19
64086;BME280;50333;47.436;21.390;2022-09-24T08:40:35;100905.44;;;15.51;57.66
64086;BME280;50333;47.436;21.390;2022-09-24T08:45:57;100898.34;;;15.75;56.30
64086;BME280;50333;47.436;21.390;2022-09-24T08:48:47;100905.63;;;15.59;57.57
64086;BME280;50333;47.436;21.390;2022-09-24T08:51:19;100906.44;;;15.79;57.29
64086;BME280;50333;47.436;21.390;2022-09-24T08:53:56;100904.97;;;15.92;56.25
64086;BME280;50333;47.436;21.390;2022-09-24T08:56:29;100907.69;;;16.06;55.20
64086;BME280;50333;47.436;21.390;2022-09-24T08:59:23;100913.53;;;16.21;54.79
64086;BME280;50333;47.436;21.390;2022-09-24T09:01:59;100917.28;;;16.34;55.23
64086;BME280;50333;47.436;21.390;2022-09-24T09:09:52;100920.25;;;16.66;53.89
64086;BME280;50333;47.436;21.390;2022-09-24T09:12:28;100911.37;;;17.08;52.93
64086;BME280;50333;47.436;21.390;2022-09-24T09:15:16;100908.37;;;17.70;52.04
64086;BME280;50333;47.436;21.390;2022-09-24T09:17:51;100908.47;;;16.44;54.29
64086;BME280;50333;47.436;21.390;2022-09-24T09:20:36;100906.91;;;17.09;53.49
64086;BME280;50333;47.436;21.390;2022-09-24T09:23:17;100897.66;;;17.53;52.10
64086;BME280;50333;47.436;21.390;2022-09-24T09:25:51;100903.78;;;17.62;50.69
64086;BME280;50333;47.436;21.390;2022-09-24T09:28:21;100904.69;;;17.71;50.82
64086;BME280;50333;47.436;21.390;2022-09-24T09:43:58;100882.81;;;18.75;46.23
64086;BME280;50333;47.436;21.390;2022-09-24T09:46:33;100879.28;;;18.80;45.91
64086;BME280;50333;47.436;21.390;2022-09-24T09:49:06;100878.00;;;19.09;44.76
64086;BME280;50333;47.436;21.390;2022-09-24T09:51:40;100876.22;;;19.27;44.45
64086;BME280;50333;47.436;21.390;2022-09-24T09:54:08;100874.97;;;18.84;45.09
64086;BME280;50333;47.436;21.390;2022-09-24T09:56:41;100861.59;;;19.29;45.18
64086;BME280;50333;47.436;21.390;2022-09-24T10:01:40;100865.69;;;19.44;43.65
64086;BME280;50333;47.436;21.390;2022-09-24T10:04:36;100877.63;;;19.33;43.92
64086;BME280;50333;47.436;21.390;2022-09-24T10:07:08;100869.78;;;19.68;41.64
64086;BME280;50333;47.436;21.390;2022-09-24T10:09:38;100871.66;;;19.67;42.54
64086;BME280;50333;47.436;21.390;2022-09-24T10:12:21;100870.87;;;19.58;42.01
64086;BME280;50333;47.436;21.390;2022-09-24T10:15:02;100877.09;;;19.71;40.15
64086;BME280;50333;47.436;21.390;2022-09-24T10:17:34;100862.94;;;20.37;39.65
64086;BME280;50333;47.436;21.390;2022-09-24T10:20:09;100869.25;;;19.39;41.75
64086;BME280;50333;47.436;21.390;2022-09-24T10:23:05;100864.97;;;19.12;42.82
64086;BME280;50333;47.436;21.390;2022-09-24T10:25:34;100868.44;;;19.79;41.41
64086;BME280;50333;47.436;21.390;2022-09-24T10:28:07;100861.41;;;19.92;42.31
64086;BME280;50333;47.436;21.390;2022-09-24T10:30:58;100862.00;;;20.41;42.08
64086;BME280;50333;47.436;21.390;2022-09-24T10:33:36;100860.16;;;19.72;41.46
64086;BME280;50333;47.436;21.390;2022-09-24T10:36:07;100856.06;;;20.44;40.35
64086;BME280;50333;47.436;21.390;2022-09-24T10:38:39;100859.22;;;19.85;40.94
64086;BME280;50333;47.436;21.390;2022-09-24T10:41:27;100858.41;;;20.37;40.26
64086;BME280;50333;47.436;21.390;2022-09-24T10:43:56;100850.28;;;20.51;39.90
64086;BME280;50333;47.436;21.390;2022-09-24T10:52:44;100850.31;;;20.42;40.14
64086;BME280;50333;47.436;21.390;2022-09-24T11:22:29;100829.53;;;19.13;42.40
64086;BME280;50333;47.436;21.390;2022-09-24T11:28:27;100824.34;;;19.66;40.75
64086;BME280;50333;47.436;21.390;2022-09-24T11:31:11;100833.66;;;19.37;40.36
64086;BME280;50333;47.436;21.390;2022-09-24T11:36:54;100825.59;;;19.59;40.77
64086;BME280;50333;47.436;21.390;2022-09-24T11:42:26;100822.12;;;19.41;40.04
64086;BME280;50333;47.436;21.390;2022-09-24T11:48:15;100816.84;;;19.50;39.52
64086;BME280;50333;47.436;21.390;2022-09-24T11:54:05;100816.16;;;19.10;39.20
64086;BME280;50333;47.436;21.390;2022-09-24T11:56:40;100800.59;;;18.99;38.70
64086;BME280;50333;47.436;21.390;2022-09-24T12:02:23;100804.00;;;18.69;39.19
64086;BME280;50333;47.436;21.390;2022-09-24T12:04:56;100813.81;;;18.68;38.86
64086;BME280;50333;47.436;21.390;2022-09-24T12:07:42;100820.81;;;18.41;40.25
64086;BME280;50333;47.436;21.390;2022-09-24T12:10:26;100815.41;;;18.78;39.84
64086;BME280;50333;47.436;21.390;2022-09-24T12:13:03;100820.91;;;18.59;40.69
64086;BME280;50333;47.436;21.390;2022-09-24T12:15:45;100814.94;;;18.76;40.95
64086;BME280;50333;47.436;21.390;2022-09-24T12:18:24;100807.34;;;19.32;40.50
64086;BME280;50333;47.436;21.390;2022-09-24T12:20:58;100795.59;;;18.98;41.35
64086;BME280;50333;47.436;21.390;2022-09-24T12:23:32;100808.72;;;18.80;40.59
64086;BME280;50333;47.436;21.390;2022-09-24T12:26:03;100807.47;;;19.09;39.82
64086;BME280;50333;47.436;21.390;2022-09-24T12:31:44;100786.50;;;18.73;40.34
64086;BME280;50333;47.436;21.390;2022-09-24T12:34:46;100786.06;;;18.79;41.23
64086;BME280;50333;47.436;21.390;2022-09-24T12:37:22;100783.50;;;18.97;40.01
64086;BME280;50333;47.436;21.390;2022-09-24T12:40:00;100786.34;;;19.27;40.35
64086;BME280;50333;47.436;21.390;2022-09-24T12:42:36;100782.37;;;18.89;40.25
64086;BME280;50333;47.436;21.390;2022-09-24T12:45:12;100772.34;;;19.35;40.04
64086;BME280;50333;47.436;21.390;2022-09-24T12:47:49;100774.06;;;18.73;40.47
64086;BME280;50333;47.436;21.390;2022-09-24T12:50:20;100779.09;;;18.83;40.07
64086;BME280;50333;47.436;21.390;2022-09-24T12:52:49;100763.19;;;19.24;38.38
64086;BME280;50333;47.436;21.390;2022-09-24T12:55:29;100761.78;;;19.52;39.30
64086;BME280;50333;47.436;21.390;2022-09-24T12:58:03;100762.69;;;19.04;39.85
64086;BME280;50333;47.436;21.390;2022-09-24T13:00:44;100762.56;;;18.69;40.51
64086;BME280;50333;47.436;21.390;2022-09-24T13:03:34;100762.72;;;19.30;40.12
64086;BME280;50333;47.436;21.390;2022-09-24T13:06:19;100762.37;;;18.65;39.12
64086;BME280;50333;47.436;21.390;2022-09-24T13:08:48;100751.91;;;18.83;37.88
64086;BME280;50333;47.436;21.390;2022-09-24T13:16:42;100749.53;;;18.81;40.65
64086;BME280;50333;47.436;21.390;2022-09-24T13:19:35;100742.34;;;18.64;39.10
64086;BME280;50333;47.436;21.390;2022-09-24T13:22:04;100736.72;;;18.97;39.60
64086;BME280;50333;47.436;21.390;2022-09-24T13:25:04;100749.84;;;18.08;40.29
64086;BME280;50333;47.436;21.390;2022-09-24T13:35:43;100733.78;;;19.16;38.80
64086;BME280;50333;47.436;21.390;2022-09-24T13:38:20;100733.31;;;19.06;39.34
64086;BME280;50333;47.436;21.390;2022-09-24T13:41:04;100732.37;;;19.54;38.55
64086;BME280;50333;47.436;21.390;2022-09-24T13:43:44;100718.69;;;19.26;38.78
64086;BME280;50333;47.436;21.390;2022-09-24T13:46:15;100720.59;;;19.51;38.92
64086;BME280;50333;47.436;21.390;2022-09-24T13:48:50;100712.47;;;19.13;37.82
64086;BME280;50333;47.436;21.390;2022-09-24T13:51:24;100702.06;;;19.43;40.44
64086;BME280;50333;47.436;21.390;2022-09-24T13:54:21;100704.69;;;19.60;36.77
64086;BME280;50333;47.436;21.390;2022-09-24T13:57:10;100705.81;;;18.66;39.83
64086;BME280;50333;47.436;21.390;2022-09-24T13:59:38;100702.56;;;18.61;40.34
64086;BME280;50333;47.436;21.390;2022-09-24T14:02:27;100710.88;;;18.45;39.76
64086;BME280;50333;47.436;21.390;2022-09-24T14:05:00;100709.59;;;18.74;39.42
64086;BME280;50333;47.436;21.390;2022-09-24T14:07:28;100714.63;;;18.84;39.59
64086;BME280;50333;47.436;21.390;2022-09-24T14:10:03;100716.94;;;18.46;39.76
64086;BME280;50333;47.436;21.390;2022-09-24T14:12:31;100720.84;;;18.49;40.43
64086;BME280;50333;47.436;21.390;2022-09-24T14:14:59;100718.00;;;18.36;39.88
64086;BME280;50333;47.436;21.390;2022-09-24T14:17:26;100705.63;;;19.12;38.82
64086;BME280;50333;47.436;21.390;2022-09-24T14:19:55;100703.72;;;18.86;39.67
64086;BME280;50333;47.436;21.390;2022-09-24T14:22:33;100694.59;;;19.27;39.80
64086;BME280;50333;47.436;21.390;2022-09-24T14:25:06;100691.81;;;19.06;40.72
64086;BME280;50333;47.436;21.390;2022-09-24T14:27:40;100692.66;;;18.75;41.66
64086;BME280;50333;47.436;21.390;2022-09-24T14:30:24;100683.03;;;18.79;41.48
64086;BME280;50333;47.436;21.390;2022-09-24T14:33:15;100685.56;;;18.93;40.82
64086;BME280;50333;47.436;21.390;2022-09-24T14:35:46;100699.75;;;18.57;40.36
64086;BME280;50333;47.436;21.390;2022-09-24T14:40:59;100702.28;;;18.71;40.46
64086;BME280;50333;47.436;21.390;2022-09-24T14:43:58;100699.25;;;18.95;40.54
64086;BME280;50333;47.436;21.390;2022-09-24T14:46:31;100699.50;;;18.76;41.08
64086;BME280;50333;47.436;21.390;2022-09-24T14:49:22;100688.94;;;18.27;41.98
64086;BME280;50333;47.436;21.390;2022-09-24T14:51:52;100694.72;;;18.38;41.27
64086;BME280;50333;47.436;21.390;2022-09-24T14:59:44;100695.22;;;18.49;41.79
64086;BME280;50333;47.436;21.390;2022-09-24T15:02:21;100692.28;;;18.51;41.76
64086;BME280;50333;47.436;21.390;2022-09-24T15:04:54;100693.41;;;18.58;41.60
64086;BME280;50333;47.436;21.390;2022-09-24T15:07:32;100689.03;;;18.54;42.26
64086;BME280;50333;47.436;21.390;2022-09-24T15:10:02;100683.44;;;18.15;42.69
64086;BME280;50333;47.436;21.390;2022-09-24T15:12:32;100675.97;;;18.49;42.30